KBRD/BRD METAR and TAF weather

Enter ICAO airport designator
Station Type Date Time Source
KBRD METAR 2018/01/23 00:53 UTC NOAA

KBRD 230053Z AUTO 01014G19KT 10SM OVC017 M03/M07 A2990 RMK AO2 SLP141 T10281067


Station Type Date Time Source
KBRD Decoded METAR 2018/01/23 00:53 UTC NOAA

BRAINERD-CROW WING CO AIRPORT , MN, United States (KBRD) 46-24N 94-08W 372M
Jan 22, 2018 - 07:53 PM EST / 2018.01.23 0053 UTC
Wind: from the N (010 degrees) at 16 MPH (14 KT) gusting to 22 MPH (19 KT):0
Visibility: 10 mile(s):0
Sky conditions: overcast
Temperature: 27.0 F (-2.8 C)
Windchill: 14 F (-10 C):1
Dew Point: 19.9 F (-6.7 C)
Relative Humidity: 74%
Pressure (altimeter): 29.9 in. Hg (1012 hPa)
ob: KBRD 230053Z AUTO 01014G19KT 10SM OVC017 M03/M07 A2990 RMK AO2 SLP141 T10281067
cycle: 1

Station Type Date Time Source
KBRD TAF 2018/01/22 18:22 UTC NOAA

TAF KBRD 221720Z 2218/2318 03012G20KT P6SM OVC010
FM230300 36010KT P6SM BKN010
FM230600 36008KT P6SM SCT020
FM231700 33005KT P6SM SCT150


Example: see airport list